Pont Aven — FNPN — position and weather

sailwx.info

Track history (hours):
 
Tides and Currents Weather Stations Pressure Air Temp Water Temp Dewpoint Dewpoint Depression Visibility Wind Speed Wind Dir Waves Ship Positions

Pont Aven

Last reported at 2019-Apr-24 20:07 UTC. Time now 2019-Apr-24 22:15 UTC.
Position N 43°46' W 003°49'.

Length 185 m; beam 31 m.

Type: Passenger vessel. MMSI: 228183600.

Date/timePositionNaut miles runAvg speedWind from/ knotsBaromVisibWave heightAir tempDewpointWater temp
2019-Apr-24 20:07N 43°46' W 003°49'222.6
2019-Apr-24 20:00N 43°44' W 003°48'1122.5
2019-Apr-24 19:31N 43°33' W 003°45'6 4.7
2019-Apr-24 18:20N 43°28' W 003°48'0 0.0
2019-Apr-24 18:00N 43°28' W 003°48'0 0.0
2019-Apr-24 17:31N 43°28' W 003°48'0 0.0
2019-Apr-24 17:00N 43°28' W 003°48'0 0.0
2019-Apr-24 16:31N 43°28' W 003°48'4 4.9
2019-Apr-24 15:37N 43°31' W 003°45'221.9
2019-Apr-24 15:30N 43°33' W 003°46'1020.4
2019-Apr-24 15:01N 43°43' W 003°49'1020.6
2019-Apr-24 14:30N 43°53' W 003°52'1121.2
2019-Apr-24 14:00N 44°04' W 003°55'23821.6
2019-Apr-24 02:58N 47°56' W 005°09'1521.9
2019-Apr-24 02:18N 48°11' W 005°09'723.1
2019-Apr-24 02:00N 48°18' W 005°07'919.0
2019-Apr-24 01:31N 48°27' W 005°02'1020.3
2019-Apr-24 01:01N 48°34' W 004°52'1224.7
2019-Apr-24 00:31N 48°43' W 004°39'1325.0
2019-Apr-24 00:00N 48°52' W 004°26'6623.4
2019-Apr-23 21:12N 49°42' W 003°20'422.2
2019-Apr-23 21:00N 49°45' W 003°15'1122.3
2019-Apr-23 20:30N 49°53' W 003°02'1122.2
2019-Apr-23 20:00N 49°59' W 002°48'2023.6
2019-Apr-23 19:09N 50°09' W 002°20'424.5
2019-Apr-23 18:58N 50°11' W 002°14'1124.9
2019-Apr-23 18:31N 50°16' W 001°59'1325.5
2019-Apr-23 18:01N 50°23' W 001°42'1325.7
2019-Apr-23 17:31N 50°30' W 001°25'1326.3
2019-Apr-23 17:01N 50°36' W 001°07'816.2
2019-Apr-23 16:31N 50°44' W 001°04'5 9.0
2019-Apr-23 16:00N 50°49' W 001°06'0 0.0
2019-Apr-23 15:30N 50°49' W 001°06'0 0.0
2019-Apr-23 15:00N 50°49' W 001°06'0 0.0
2019-Apr-23 14:30N 50°49' W 001°06'0 0.0
2019-Apr-23 14:00N 50°49' W 001°06'0 0.0
2019-Apr-23 13:30N 50°49' W 001°06'0 0.9
2019-Apr-23 13:01N 50°49' W 001°06'510.4
2019-Apr-23 12:31N 50°44' W 001°03'918.3
2019-Apr-23 12:01N 50°35' W 001°07'1622.9
2019-Apr-23 11:18N 50°25' W 001°27'721.9
2019-Apr-23 11:01N 50°19' W 001°32'1223.2
2019-Apr-23 10:31N 50°12' W 001°46'1223.8
2019-Apr-23 10:00N 50°06' W 002°02'1223.9
2019-Apr-23 09:30N 49°59' W 002°18'1223.6
2019-Apr-23 09:00N 49°53' W 002°34'1123.1
2019-Apr-23 08:31N 49°48' W 002°49'1122.3
2019-Apr-23 08:01N 49°41' W 003°03'1122.2
2019-Apr-23 07:31N 49°34' W 003°16'1122.0
2019-Apr-23 07:00N 49°26' W 003°28'1122.0
2019-Apr-23 06:29N 49°18' W 003°41'1622.0
2019-Apr-23 05:45N 49°07' W 003°59'522.0
2019-Apr-23 05:30N 49°04' W 004°05'3422.2
2019-Apr-23 03:58N 48°41' W 004°43'1122.5
2019-Apr-23 03:30N 48°33' W 004°54'1018.2
2019-Apr-23 02:58N 48°25' W 005°03'1022.3
2019-Apr-23 02:31N 48°15' W 005°08'1224.6
2019-Apr-23 02:00N 48°03' W 005°10'1524.6
2019-Apr-23 01:24N 47°48' W 005°05'24623.5
2019-Apr-22 14:54N 43°48' W 003°51'923.4
2019-Apr-22 14:31N 43°39' W 003°48'1121.7
2019-Apr-22 14:00N 43°28' W 003°45'2 4.3
2019-Apr-22 13:30N 43°28' W 003°48'0 0.0
2019-Apr-22 13:00N 43°28' W 003°48'0 0.0
2019-Apr-22 12:30N 43°28' W 003°48'0 0.0
2019-Apr-22 12:00N 43°28' W 003°48'0 0.0
2019-Apr-22 11:30N 43°28' W 003°48'0 0.0
2019-Apr-22 10:29N 43°28' W 003°48'4 4.8
2019-Apr-22 09:37N 43°31' W 003°46'223.1
2019-Apr-22 09:30N 43°34' W 003°46'1223.4
2019-Apr-22 09:01N 43°45' W 003°50'1323.4
2019-Apr-22 08:28N 43°57' W 003°53'16922.6
2019-Apr-22 00:59N 46°43' W 004°43'1123.1
2019-Apr-22 00:30N 46°53' W 004°46'1123.0
2019-Apr-22 00:01N 47°05' W 004°49'2823.3
2019-Apr-21 22:49N 47°32' W 004°57'923.9
2019-Apr-21 22:26N 47°41' W 005°00'1124.6
2019-Apr-21 22:01N 47°51' W 005°05'1325.9
2019-Apr-21 21:30N 48°03' W 005°10'1525.3
2019-Apr-21 20:55N 48°18' W 005°07'1020.7
2019-Apr-21 20:26N 48°27' W 005°01'1021.5
2019-Apr-21 19:58N 48°37' W 004°56'1124.1
2019-Apr-21 19:29N 48°48' W 004°51'3123.2
2019-Apr-21 18:09N 49°18' W 004°40'422.6
2019-Apr-21 17:58N 49°22' W 004°38'3723.0
2019-Apr-21 16:22N 49°56' W 004°19'923.6
2019-Apr-21 16:00N 50°05' W 004°16'1223.6
2019-Apr-21 15:31N 50°16' W 004°12'611.8
2019-Apr-21 15:00N 50°22' W 004°09'0 0.1
2019-Apr-21 14:30N 50°22' W 004°09'0 0.0
2019-Apr-21 14:00N 50°22' W 004°09'0 0.0
2019-Apr-21 13:30N 50°22' W 004°09'0 0.0
2019-Apr-21 13:00N 50°22' W 004°09'0 0.0
2019-Apr-21 12:31N 50°22' W 004°09'2 3.0
2019-Apr-21 11:59N 50°20' W 004°10'919.2
2019-Apr-21 11:31N 50°11' W 004°08'1223.9
2019-Apr-21 11:01N 49°59' W 004°05'1223.9
2019-Apr-21 10:31N 49°48' W 004°01'1224.0
2019-Apr-21 10:01N 49°36' W 003°58'1223.8
2019-Apr-21 09:31N 49°24' W 003°57'1223.9
2019-Apr-21 09:01N 49°12' W 003°60'1223.8
2019-Apr-21 08:31N 49°00' W 003°59'1223.9
2019-Apr-21 08:01N 48°48' W 003°57'510.0
2019-Apr-21 07:30N 48°43' W 003°58'0 0.0
2019-Apr-21 07:00N 48°43' W 003°58'0 0.0
2019-Apr-21 06:30N 48°43' W 003°58'0 0.0
2019-Apr-21 06:00N 48°43' W 003°58'0 0.0
2019-Apr-21 05:30N 48°43' W 003°58'0 0.0
2019-Apr-21 05:00N 48°43' W 003°58'1 1.9
2019-Apr-21 04:30N 48°44' W 003°57'816.0
2019-Apr-21 04:01N 48°51' W 004°04'918.3
2019-Apr-21 03:30N 48°57' W 004°15'917.4
2019-Apr-21 03:00N 49°02' W 004°25'917.5
2019-Apr-21 02:30N 49°08' W 004°35'1018.0
2019-Apr-21 01:58N 49°14' W 004°46'1817.5
2019-Apr-21 00:58N 49°26' W 005°05'6817.6
2019-Apr-20 21:05N 50°22' W 006°07'421.7
2019-Apr-20 20:55N 50°25' W 006°10'2621.7
2019-Apr-20 19:43N 50°44' W 006°38'5721.5
2019-Apr-20 17:04N 51°24' W 007°42'121.4
2019-Apr-20 17:00N 51°25' W 007°44'1121.4
2019-Apr-20 16:30N 51°33' W 007°56'1121.3
2019-Apr-20 16:00N 51°40' W 008°08'917.2
2019-Apr-20 15:30N 51°47' W 008°16'4 7.6
2019-Apr-20 15:00N 51°51' W 008°18'1 2.9
2019-Apr-20 14:30N 51°50' W 008°19'0 0.0
2019-Apr-20 14:00N 51°50' W 008°19'0 0.0
2019-Apr-20 13:30N 51°50' W 008°19'0 0.0
2019-Apr-20 13:00N 51°50' W 008°19'0 0.0
2019-Apr-20 12:30N 51°50' W 008°19'0 0.0
2019-Apr-20 12:00N 51°50' W 008°19'0 0.0
2019-Apr-20 11:30N 51°50' W 008°19'0 0.0
2019-Apr-20 11:00N 51°50' W 008°19'0 0.0
2019-Apr-20 10:30N 51°50' W 008°19'0 0.0
2019-Apr-20 10:00N 51°50' W 008°19'0 0.0
2019-Apr-20 09:30N 51°50' W 008°19'0 0.0
2019-Apr-20 09:00N 51°50' W 008°19'0 0.0
2019-Apr-20 08:30N 51°50' W 008°19'0 0.5
2019-Apr-20 08:00N 51°50' W 008°20'2 4.8
2019-Apr-20 07:30N 51°49' W 008°16'815.0
2019-Apr-20 07:01N 51°42' W 008°11'1121.1
2019-Apr-20 06:30N 51°35' W 007°58'1021.0
2019-Apr-20 06:01N 51°28' W 007°46'1020.9
2019-Apr-20 05:30N 51°20' W 007°35'1020.8
2019-Apr-20 05:01N 51°13' W 007°23'1320.8
2019-Apr-20 04:22N 51°04' W 007°07'1220.9
2019-Apr-20 03:47N 50°55' W 006°53'4720.4
2019-Apr-20 01:28N 50°25' W 005°57'918.7
2019-Apr-20 01:01N 50°16' W 005°55'1120.0
2019-Apr-20 00:29N 50°06' W 005°55'4219.8
2019-Apr-19 22:22N 49°34' W 005°12'3319.8
2019-Apr-19 20:43N 49°11' W 004°37'1519.8
2019-Apr-19 19:58N 49°01' W 004°20'919.4
2019-Apr-19 19:30N 48°55' W 004°10'1019.0
2019-Apr-19 18:58N 48°48' W 003°59'4 6.1
2019-Apr-19 18:14N 48°43' W 003°58'0 0.0
2019-Apr-19 17:53N 48°43' W 003°58'0 0.0
2019-Apr-19 17:30N 48°43' W 003°58'0 0.0
2019-Apr-19 17:00N 48°43' W 003°58'0 0.0
2019-Apr-19 16:30N 48°43' W 003°58'0 0.0
2019-Apr-19 16:00N 48°43' W 003°58'0 0.0
2019-Apr-19 15:30N 48°43' W 003°58'0 0.0
2019-Apr-19 15:00N 48°43' W 003°58'2 3.5
2019-Apr-19 14:31N 48°45' W 003°57'5 9.4
2019-Apr-19 14:01N 48°50' W 003°57'611.1
2019-Apr-19 13:31N 48°50' W 003°49'611.8
2019-Apr-19 13:01N 48°51' W 003°40'5 9.2
2019-Apr-19 12:31N 48°50' W 003°47'510.2
2019-Apr-19 12:01N 48°49' W 003°54'1 2.2
2019-Apr-19 11:30N 48°50' W 003°56'713.7
2019-Apr-19 11:01N 48°50' W 003°45'1 2.1
2019-Apr-19 10:30N 48°50' W 003°47'4 8.9
2019-Apr-19 10:01N 48°48' W 003°53'611.4
2019-Apr-19 09:31N 48°43' W 003°58'0 0.3
2019-Apr-19 09:01N 48°43' W 003°58'0 0.0
2019-Apr-19 07:37N 48°43' W 003°58'0 0.0
2019-Apr-19 07:30N 48°43' W 003°58'0 0.0
2019-Apr-19 06:03N 48°43' W 003°58'0 0.3
2019-Apr-19 05:39N 48°43' W 003°58'2 9.6
2019-Apr-19 05:30N 48°45' W 003°57'714.6
2019-Apr-19 05:00N 48°52' W 003°57'915.6
2019-Apr-19 04:27N 49°00' W 003°59'715.5
2019-Apr-19 04:00N 49°07' W 003°59'815.3
2019-Apr-19 03:30N 49°15' W 004°00'815.3
2019-Apr-19 03:00N 49°23' W 004°02'815.4
2019-Apr-19 02:30N 49°30' W 004°03'613.0
2019-Apr-19 02:00N 49°37' W 004°04'611.5
2019-Apr-19 01:31N 49°42' W 004°05'611.4
2019-Apr-19 01:00N 49°48' W 004°06'611.4
2019-Apr-19 00:30N 49°54' W 004°07'611.3
2019-Apr-19 00:00N 49°59' W 004°08'611.2
2019-Apr-18 23:31N 50°05' W 004°10'511.0
2019-Apr-18 23:00N 50°10' W 004°11'5 9.5
2019-Apr-18 22:30N 50°15' W 004°12'1 1.7
2019-Apr-18 22:01N 50°15' W 004°11'1 1.4
2019-Apr-18 21:30N 50°15' W 004°10'1 1.0
2019-Apr-18 21:00N 50°15' W 004°09'0 0.9
2019-Apr-18 20:30N 50°15' W 004°09'3 6.0
2019-Apr-18 20:00N 50°18' W 004°10'4 7.7
2019-Apr-18 19:30N 50°22' W 004°09'0 0.0
2019-Apr-18 19:00N 50°22' W 004°09'0 0.0
2019-Apr-18 18:30N 50°22' W 004°09'0 0.0
2019-Apr-18 18:00N 50°22' W 004°09'0 0.0
2019-Apr-18 17:30N 50°22' W 004°09'0 0.0
2019-Apr-18 17:00N 50°22' W 004°09'0 0.0
2019-Apr-18 16:30N 50°22' W 004°09'0 0.0
2019-Apr-18 16:00N 50°22' W 004°09'0 0.0
2019-Apr-18 15:30N 50°22' W 004°09'1 1.1
2019-Apr-18 15:00N 50°21' W 004°09'713.7
2019-Apr-18 14:31N 50°15' W 004°12'1223.0
2019-Apr-18 14:01N 50°04' W 004°19'1020.3
2019-Apr-18 13:30N 49°55' W 004°24'1020.7
2019-Apr-18 13:01N 49°45' W 004°28'1020.5
2019-Apr-18 12:30N 49°35' W 004°34'1020.8
2019-Apr-18 12:00N 49°25' W 004°37'1020.5
2019-Apr-18 11:30N 49°15' W 004°40'2020.1
2019-Apr-18 10:31N 48°56' W 004°48'020.1
2019-Apr-18 10:30N 48°55' W 004°48'1219.5
2019-Apr-18 09:53N 48°44' W 004°53'1019.2
2019-Apr-18 09:23N 48°34' W 004°57'718.7
2019-Apr-18 09:00N 48°28' W 005°00'917.8
2019-Apr-18 08:31N 48°20' W 005°07'1121.6
2019-Apr-18 08:01N 48°10' W 005°09'1120.9
2019-Apr-18 07:30N 47°59' W 005°08'1121.3
2019-Apr-18 07:00N 47°49' W 005°03'19722.1
2019-Apr-17 22:04N 44°36' W 004°05'123.2
2019-Apr-17 22:00N 44°34' W 004°05'1223.4
2019-Apr-17 21:30N 44°23' W 004°02'1223.3
2019-Apr-17 21:00N 44°12' W 003°58'1223.4
2019-Apr-17 20:30N 44°00' W 003°55'1323.3
2019-Apr-17 19:56N 43°47' W 003°50'1023.3
2019-Apr-17 19:31N 43°37' W 003°47'1017.9
2019-Apr-17 18:57N 43°27' W 003°47'1 1.6
2019-Apr-17 18:31N 43°28' W 003°48'0 0.0
2019-Apr-17 18:01N 43°28' W 003°48'0 0.0
2019-Apr-17 17:31N 43°28' W 003°48'0 0.0
2019-Apr-17 17:01N 43°28' W 003°48'0 0.0
2019-Apr-17 16:30N 43°28' W 003°48'4 4.9
2019-Apr-17 15:38N 43°31' W 003°45'219.2
2019-Apr-17 15:30N 43°33' W 003°45'1020.4
2019-Apr-17 15:01N 43°43' W 003°48'1020.1
2019-Apr-17 14:31N 43°53' W 003°52'9920.8
2019-Apr-17 09:43N 45°30' W 004°22'621.1
2019-Apr-17 09:26N 45°36' W 004°24'1120.7
2019-Apr-17 08:55N 45°46' W 004°27'7620.8
2019-Apr-17 05:14N 47°01' W 004°51'620.8
2019-Apr-17 04:56N 47°07' W 004°53'1621.0
2019-Apr-17 04:11N 47°23' W 004°58'1121.3
2019-Apr-17 03:41N 47°33' W 005°01'521.3
2019-Apr-17 03:26N 47°38' W 005°02'1721.2
2019-Apr-17 02:38N 47°55' W 005°08'1120.7
2019-Apr-17 02:07N 48°05' W 005°10'320.1
2019-Apr-17 01:58N 48°08' W 005°09'1918.9
2019-Apr-17 00:58N 48°26' W 005°02'1818.5
2019-Apr-16 23:58N 48°44' W 004°52'1620.4
2019-Apr-16 23:10N 48°59' W 004°43'1320.9
2019-Apr-16 22:33N 49°11' W 004°37'3221.5
2019-Apr-16 21:04N 49°42' W 004°24'221.6
2019-Apr-16 21:00N 49°44' W 004°23'1221.6
2019-Apr-16 20:25N 49°56' W 004°18'921.3
2019-Apr-16 20:00N 50°04' W 004°14'1121.1
2019-Apr-16 19:30N 50°14' W 004°11'714.7
2019-Apr-16 19:01N 50°22' W 004°09'0 0.8
2019-Apr-16 18:31N 50°22' W 004°09'0 0.0
2019-Apr-16 18:00N 50°22' W 004°09'0 0.0
2019-Apr-16 17:31N 50°22' W 004°09'0 0.0
2019-Apr-16 17:01N 50°22' W 004°09'0 0.0
2019-Apr-16 16:31N 50°22' W 004°09'0 0.0
2019-Apr-16 16:00N 50°22' W 004°09'0 0.0
2019-Apr-16 15:31N 50°22' W 004°09'0 0.0
2019-Apr-16 15:01N 50°22' W 004°09'0 0.0
2019-Apr-16 14:31N 50°22' W 004°09'0 0.0
2019-Apr-16 14:00N 50°22' W 004°09'0 0.0
2019-Apr-16 13:31N 50°22' W 004°09'0 0.0
2019-Apr-16 13:01N 50°22' W 004°09'0 0.0
2019-Apr-16 12:31N 50°22' W 004°09'0 0.3
2019-Apr-16 12:01N 50°22' W 004°09'3 5.5
2019-Apr-16 11:31N 50°19' W 004°10'1121.4
2019-Apr-16 11:01N 50°08' W 004°13'1122.7
2019-Apr-16 10:31N 49°58' W 004°22'8022.6
2019-Apr-16 06:58N 48°41' W 004°54'1022.0
2019-Apr-16 06:30N 48°31' W 004°58'917.1
2019-Apr-16 06:01N 48°24' W 005°05'1121.1
2019-Apr-16 05:31N 48°14' W 005°08'1122.4
2019-Apr-16 05:00N 48°03' W 005°10'2322.3
2019-Apr-16 03:58N 47°41' W 004°59'23718.5
2019-Apr-15 15:12N 43°48' W 003°52'422.5
2019-Apr-15 15:01N 43°44' W 003°51'1122.6
2019-Apr-15 14:31N 43°34' W 003°47'612.3
2019-Apr-15 14:00N 43°27' W 003°48'0 0.1
2019-Apr-15 13:30N 43°28' W 003°48'0 0.0
2019-Apr-15 13:00N 43°28' W 003°48'0 0.0
2019-Apr-15 12:00N 43°28' W 003°48'0 0.0
2019-Apr-15 11:29N 43°28' W 003°48'0 0.0
2019-Apr-15 11:00N 43°28' W 003°48'3 4.1
2019-Apr-15 10:15N 43°29' W 003°45'623.2
2019-Apr-15 10:00N 43°35' W 003°46'1223.2
2019-Apr-15 09:31N 43°46' W 003°49'1223.2
2019-Apr-15 09:01N 43°58' W 003°52'25222.9
2019-Apr-14 21:58N 48°04' W 005°10'1021.4
2019-Apr-14 21:30N 48°14' W 005°08'1121.1
2019-Apr-14 20:58N 48°25' W 005°04'  
Track history (hours):
 
Tides and Currents Weather Stations Pressure Air Temp Water Temp Dewpoint Dewpoint Depression Visibility Wind Speed Wind Dir Waves Ship Positions

Pont Aven

Last reported at 2019-Apr-24 20:07 UTC. Time now 2019-Apr-24 22:15 UTC.
Position N 43°46' W 003°49'.

Length 185 m; beam 31 m.

Type: Passenger vessel. MMSI: 228183600.

Date/timePositionNaut miles runAvg speedWind from/ knotsBaromVisibWave heightAir tempDewpointWater temp
2019-Apr-24 20:07N 43°46' W 003°49'222.6
2019-Apr-24 20:00N 43°44' W 003°48'1122.5
2019-Apr-24 19:31N 43°33' W 003°45'6 4.7
2019-Apr-24 18:20N 43°28' W 003°48'0 0.0
2019-Apr-24 18:00N 43°28' W 003°48'0 0.0
2019-Apr-24 17:31N 43°28' W 003°48'0 0.0
2019-Apr-24 17:00N 43°28' W 003°48'0 0.0
2019-Apr-24 16:31N 43°28' W 003°48'4 4.9
2019-Apr-24 15:37N 43°31' W 003°45'221.9
2019-Apr-24 15:30N 43°33' W 003°46'1020.4
2019-Apr-24 15:01N 43°43' W 003°49'1020.6
2019-Apr-24 14:30N 43°53' W 003°52'1121.2
2019-Apr-24 14:00N 44°04' W 003°55'23821.6
2019-Apr-24 02:58N 47°56' W 005°09'1521.9
2019-Apr-24 02:18N 48°11' W 005°09'723.1
2019-Apr-24 02:00N 48°18' W 005°07'919.0
2019-Apr-24 01:31N 48°27' W 005°02'1020.3
2019-Apr-24 01:01N 48°34' W 004°52'1224.7
2019-Apr-24 00:31N 48°43' W 004°39'1325.0
2019-Apr-24 00:00N 48°52' W 004°26'6623.4
2019-Apr-23 21:12N 49°42' W 003°20'422.2
2019-Apr-23 21:00N 49°45' W 003°15'1122.3
2019-Apr-23 20:30N 49°53' W 003°02'1122.2
2019-Apr-23 20:00N 49°59' W 002°48'2023.6
2019-Apr-23 19:09N 50°09' W 002°20'424.5
2019-Apr-23 18:58N 50°11' W 002°14'1124.9
2019-Apr-23 18:31N 50°16' W 001°59'1325.5
2019-Apr-23 18:01N 50°23' W 001°42'1325.7
2019-Apr-23 17:31N 50°30' W 001°25'1326.3
2019-Apr-23 17:01N 50°36' W 001°07'816.2
2019-Apr-23 16:31N 50°44' W 001°04'5 9.0
2019-Apr-23 16:00N 50°49' W 001°06'0 0.0
2019-Apr-23 15:30N 50°49' W 001°06'0 0.0
2019-Apr-23 15:00N 50°49' W 001°06'0 0.0
2019-Apr-23 14:30N 50°49' W 001°06'0 0.0
2019-Apr-23 14:00N 50°49' W 001°06'0 0.0
2019-Apr-23 13:30N 50°49' W 001°06'0 0.9
2019-Apr-23 13:01N 50°49' W 001°06'510.4
2019-Apr-23 12:31N 50°44' W 001°03'918.3
2019-Apr-23 12:01N 50°35' W 001°07'1622.9
2019-Apr-23 11:18N 50°25' W 001°27'721.9
2019-Apr-23 11:01N 50°19' W 001°32'1223.2
2019-Apr-23 10:31N 50°12' W 001°46'1223.8
2019-Apr-23 10:00N 50°06' W 002°02'1223.9
2019-Apr-23 09:30N 49°59' W 002°18'1223.6
2019-Apr-23 09:00N 49°53' W 002°34'1123.1
2019-Apr-23 08:31N 49°48' W 002°49'1122.3
2019-Apr-23 08:01N 49°41' W 003°03'1122.2
2019-Apr-23 07:31N 49°34' W 003°16'1122.0
2019-Apr-23 07:00N 49°26' W 003°28'1122.0
2019-Apr-23 06:29N 49°18' W 003°41'1622.0
2019-Apr-23 05:45N 49°07' W 003°59'522.0
2019-Apr-23 05:30N 49°04' W 004°05'3422.2
2019-Apr-23 03:58N 48°41' W 004°43'1122.5
2019-Apr-23 03:30N 48°33' W 004°54'1018.2
2019-Apr-23 02:58N 48°25' W 005°03'1022.3
2019-Apr-23 02:31N 48°15' W 005°08'1224.6
2019-Apr-23 02:00N 48°03' W 005°10'1524.6
2019-Apr-23 01:24N 47°48' W 005°05'24623.5
2019-Apr-22 14:54N 43°48' W 003°51'923.4
2019-Apr-22 14:31N 43°39' W 003°48'1121.7
2019-Apr-22 14:00N 43°28' W 003°45'2 4.3
2019-Apr-22 13:30N 43°28' W 003°48'0 0.0
2019-Apr-22 13:00N 43°28' W 003°48'0 0.0
2019-Apr-22 12:30N 43°28' W 003°48'0 0.0
2019-Apr-22 12:00N 43°28' W 003°48'0 0.0
2019-Apr-22 11:30N 43°28' W 003°48'0 0.0
2019-Apr-22 10:29N 43°28' W 003°48'4 4.8
2019-Apr-22 09:37N 43°31' W 003°46'223.1
2019-Apr-22 09:30N 43°34' W 003°46'1223.4
2019-Apr-22 09:01N 43°45' W 003°50'1323.4
2019-Apr-22 08:28N 43°57' W 003°53'16922.6
2019-Apr-22 00:59N 46°43' W 004°43'1123.1
2019-Apr-22 00:30N 46°53' W 004°46'1123.0
2019-Apr-22 00:01N 47°05' W 004°49'2823.3
2019-Apr-21 22:49N 47°32' W 004°57'923.9
2019-Apr-21 22:26N 47°41' W 005°00'1124.6
2019-Apr-21 22:01N 47°51' W 005°05'1325.9
2019-Apr-21 21:30N 48°03' W 005°10'1525.3
2019-Apr-21 20:55N 48°18' W 005°07'1020.7
2019-Apr-21 20:26N 48°27' W 005°01'1021.5
2019-Apr-21 19:58N 48°37' W 004°56'1124.1
2019-Apr-21 19:29N 48°48' W 004°51'3123.2
2019-Apr-21 18:09N 49°18' W 004°40'422.6
2019-Apr-21 17:58N 49°22' W 004°38'3723.0
2019-Apr-21 16:22N 49°56' W 004°19'923.6
2019-Apr-21 16:00N 50°05' W 004°16'1223.6
2019-Apr-21 15:31N 50°16' W 004°12'611.8
2019-Apr-21 15:00N 50°22' W 004°09'0 0.1
2019-Apr-21 14:30N 50°22' W 004°09'0 0.0
2019-Apr-21 14:00N 50°22' W 004°09'0 0.0
2019-Apr-21 13:30N 50°22' W 004°09'0 0.0
2019-Apr-21 13:00N 50°22' W 004°09'0 0.0
2019-Apr-21 12:31N 50°22' W 004°09'2 3.0
2019-Apr-21 11:59N 50°20' W 004°10'919.2
2019-Apr-21 11:31N 50°11' W 004°08'1223.9
2019-Apr-21 11:01N 49°59' W 004°05'1223.9
2019-Apr-21 10:31N 49°48' W 004°01'1224.0
2019-Apr-21 10:01N 49°36' W 003°58'1223.8
2019-Apr-21 09:31N 49°24' W 003°57'1223.9
2019-Apr-21 09:01N 49°12' W 003°60'1223.8
2019-Apr-21 08:31N 49°00' W 003°59'1223.9
2019-Apr-21 08:01N 48°48' W 003°57'510.0
2019-Apr-21 07:30N 48°43' W 003°58'0 0.0
2019-Apr-21 07:00N 48°43' W 003°58'0 0.0
2019-Apr-21 06:30N 48°43' W 003°58'0 0.0
2019-Apr-21 06:00N 48°43' W 003°58'0 0.0
2019-Apr-21 05:30N 48°43' W 003°58'0 0.0
2019-Apr-21 05:00N 48°43' W 003°58'1 1.9
2019-Apr-21 04:30N 48°44' W 003°57'816.0
2019-Apr-21 04:01N 48°51' W 004°04'918.3
2019-Apr-21 03:30N 48°57' W 004°15'917.4
2019-Apr-21 03:00N 49°02' W 004°25'917.5
2019-Apr-21 02:30N 49°08' W 004°35'1018.0
2019-Apr-21 01:58N 49°14' W 004°46'1817.5
2019-Apr-21 00:58N 49°26' W 005°05'6817.6
2019-Apr-20 21:05N 50°22' W 006°07'421.7
2019-Apr-20 20:55N 50°25' W 006°10'2621.7
2019-Apr-20 19:43N 50°44' W 006°38'5721.5
2019-Apr-20 17:04N 51°24' W 007°42'121.4
2019-Apr-20 17:00N 51°25' W 007°44'1121.4
2019-Apr-20 16:30N 51°33' W 007°56'1121.3
2019-Apr-20 16:00N 51°40' W 008°08'917.2
2019-Apr-20 15:30N 51°47' W 008°16'4 7.6
2019-Apr-20 15:00N 51°51' W 008°18'1 2.9
2019-Apr-20 14:30N 51°50' W 008°19'0 0.0
2019-Apr-20 14:00N 51°50' W 008°19'0 0.0
2019-Apr-20 13:30N 51°50' W 008°19'0 0.0
2019-Apr-20 13:00N 51°50' W 008°19'0 0.0
2019-Apr-20 12:30N 51°50' W 008°19'0 0.0
2019-Apr-20 12:00N 51°50' W 008°19'0 0.0
2019-Apr-20 11:30N 51°50' W 008°19'0 0.0
2019-Apr-20 11:00N 51°50' W 008°19'0 0.0
2019-Apr-20 10:30N 51°50' W 008°19'0 0.0
2019-Apr-20 10:00N 51°50' W 008°19'0 0.0
2019-Apr-20 09:30N 51°50' W 008°19'0 0.0
2019-Apr-20 09:00N 51°50' W 008°19'0 0.0
2019-Apr-20 08:30N 51°50' W 008°19'0 0.5
2019-Apr-20 08:00N 51°50' W 008°20'2 4.8
2019-Apr-20 07:30N 51°49' W 008°16'815.0
2019-Apr-20 07:01N 51°42' W 008°11'1121.1
2019-Apr-20 06:30N 51°35' W 007°58'1021.0
2019-Apr-20 06:01N 51°28' W 007°46'1020.9
2019-Apr-20 05:30N 51°20' W 007°35'1020.8
2019-Apr-20 05:01N 51°13' W 007°23'1320.8
2019-Apr-20 04:22N 51°04' W 007°07'1220.9
2019-Apr-20 03:47N 50°55' W 006°53'4720.4
2019-Apr-20 01:28N 50°25' W 005°57'918.7
2019-Apr-20 01:01N 50°16' W 005°55'1120.0
2019-Apr-20 00:29N 50°06' W 005°55'4219.8
2019-Apr-19 22:22N 49°34' W 005°12'3319.8
2019-Apr-19 20:43N 49°11' W 004°37'1519.8
2019-Apr-19 19:58N 49°01' W 004°20'919.4
2019-Apr-19 19:30N 48°55' W 004°10'1019.0
2019-Apr-19 18:58N 48°48' W 003°59'4 6.1
2019-Apr-19 18:14N 48°43' W 003°58'0 0.0
2019-Apr-19 17:53N 48°43' W 003°58'0 0.0
2019-Apr-19 17:30N 48°43' W 003°58'0 0.0
2019-Apr-19 17:00N 48°43' W 003°58'0 0.0
2019-Apr-19 16:30N 48°43' W 003°58'0 0.0
2019-Apr-19 16:00N 48°43' W 003°58'0 0.0
2019-Apr-19 15:30N 48°43' W 003°58'0 0.0
2019-Apr-19 15:00N 48°43' W 003°58'2 3.5
2019-Apr-19 14:31N 48°45' W 003°57'5 9.4
2019-Apr-19 14:01N 48°50' W 003°57'611.1
2019-Apr-19 13:31N 48°50' W 003°49'611.8
2019-Apr-19 13:01N 48°51' W 003°40'5 9.2
2019-Apr-19 12:31N 48°50' W 003°47'510.2
2019-Apr-19 12:01N 48°49' W 003°54'1 2.2
2019-Apr-19 11:30N 48°50' W 003°56'713.7
2019-Apr-19 11:01N 48°50' W 003°45'1 2.1
2019-Apr-19 10:30N 48°50' W 003°47'4 8.9
2019-Apr-19 10:01N 48°48' W 003°53'611.4
2019-Apr-19 09:31N 48°43' W 003°58'0 0.3
2019-Apr-19 09:01N 48°43' W 003°58'0 0.0
2019-Apr-19 07:37N 48°43' W 003°58'0 0.0
2019-Apr-19 07:30N 48°43' W 003°58'0 0.0
2019-Apr-19 06:03N 48°43' W 003°58'0 0.3
2019-Apr-19 05:39N 48°43' W 003°58'2 9.6
2019-Apr-19 05:30N 48°45' W 003°57'714.6
2019-Apr-19 05:00N 48°52' W 003°57'915.6
2019-Apr-19 04:27N 49°00' W 003°59'715.5
2019-Apr-19 04:00N 49°07' W 003°59'815.3
2019-Apr-19 03:30N 49°15' W 004°00'815.3
2019-Apr-19 03:00N 49°23' W 004°02'815.4
2019-Apr-19 02:30N 49°30' W 004°03'613.0
2019-Apr-19 02:00N 49°37' W 004°04'611.5
2019-Apr-19 01:31N 49°42' W 004°05'611.4
2019-Apr-19 01:00N 49°48' W 004°06'611.4
2019-Apr-19 00:30N 49°54' W 004°07'611.3
2019-Apr-19 00:00N 49°59' W 004°08'611.2
2019-Apr-18 23:31N 50°05' W 004°10'511.0
2019-Apr-18 23:00N 50°10' W 004°11'5 9.5
2019-Apr-18 22:30N 50°15' W 004°12'1 1.7
2019-Apr-18 22:01N 50°15' W 004°11'1 1.4
2019-Apr-18 21:30N 50°15' W 004°10'1 1.0
2019-Apr-18 21:00N 50°15' W 004°09'0 0.9
2019-Apr-18 20:30N 50°15' W 004°09'3 6.0
2019-Apr-18 20:00N 50°18' W 004°10'4 7.7
2019-Apr-18 19:30N 50°22' W 004°09'0 0.0
2019-Apr-18 19:00N 50°22' W 004°09'0 0.0
2019-Apr-18 18:30N 50°22' W 004°09'0 0.0
2019-Apr-18 18:00N 50°22' W 004°09'0 0.0
2019-Apr-18 17:30N 50°22' W 004°09'0 0.0
2019-Apr-18 17:00N 50°22' W 004°09'0 0.0
2019-Apr-18 16:30N 50°22' W 004°09'0 0.0
2019-Apr-18 16:00N 50°22' W 004°09'0 0.0
2019-Apr-18 15:30N 50°22' W 004°09'1 1.1
2019-Apr-18 15:00N 50°21' W 004°09'713.7
2019-Apr-18 14:31N 50°15' W 004°12'1223.0
2019-Apr-18 14:01N 50°04' W 004°19'1020.3
2019-Apr-18 13:30N 49°55' W 004°24'1020.7
2019-Apr-18 13:01N 49°45' W 004°28'1020.5
2019-Apr-18 12:30N 49°35' W 004°34'1020.8
2019-Apr-18 12:00N 49°25' W 004°37'1020.5
2019-Apr-18 11:30N 49°15' W 004°40'2020.1
2019-Apr-18 10:31N 48°56' W 004°48'020.1
2019-Apr-18 10:30N 48°55' W 004°48'1219.5
2019-Apr-18 09:53N 48°44' W 004°53'1019.2
2019-Apr-18 09:23N 48°34' W 004°57'718.7
2019-Apr-18 09:00N 48°28' W 005°00'917.8
2019-Apr-18 08:31N 48°20' W 005°07'1121.6
2019-Apr-18 08:01N 48°10' W 005°09'1120.9
2019-Apr-18 07:30N 47°59' W 005°08'1121.3
2019-Apr-18 07:00N 47°49' W 005°03'19722.1
2019-Apr-17 22:04N 44°36' W 004°05'123.2
2019-Apr-17 22:00N 44°34' W 004°05'1223.4
2019-Apr-17 21:30N 44°23' W 004°02'1223.3
2019-Apr-17 21:00N 44°12' W 003°58'1223.4
2019-Apr-17 20:30N 44°00' W 003°55'1323.3
2019-Apr-17 19:56N 43°47' W 003°50'1023.3
2019-Apr-17 19:31N 43°37' W 003°47'1017.9
2019-Apr-17 18:57N 43°27' W 003°47'1 1.6
2019-Apr-17 18:31N 43°28' W 003°48'0 0.0
2019-Apr-17 18:01N 43°28' W 003°48'0 0.0
2019-Apr-17 17:31N 43°28' W 003°48'0 0.0
2019-Apr-17 17:01N 43°28' W 003°48'0 0.0
2019-Apr-17 16:30N 43°28' W 003°48'4 4.9
2019-Apr-17 15:38N 43°31' W 003°45'219.2
2019-Apr-17 15:30N 43°33' W 003°45'1020.4
2019-Apr-17 15:01N 43°43' W 003°48'1020.1
2019-Apr-17 14:31N 43°53' W 003°52'9920.8
2019-Apr-17 09:43N 45°30' W 004°22'621.1
2019-Apr-17 09:26N 45°36' W 004°24'1120.7
2019-Apr-17 08:55N 45°46' W 004°27'7620.8
2019-Apr-17 05:14N 47°01' W 004°51'620.8
2019-Apr-17 04:56N 47°07' W 004°53'1621.0
2019-Apr-17 04:11N 47°23' W 004°58'1121.3
2019-Apr-17 03:41N 47°33' W 005°01'521.3
2019-Apr-17 03:26N 47°38' W 005°02'1721.2
2019-Apr-17 02:38N 47°55' W 005°08'1120.7
2019-Apr-17 02:07N 48°05' W 005°10'320.1
2019-Apr-17 01:58N 48°08' W 005°09'1918.9
2019-Apr-17 00:58N 48°26' W 005°02'1818.5
2019-Apr-16 23:58N 48°44' W 004°52'1620.4
2019-Apr-16 23:10N 48°59' W 004°43'1320.9
2019-Apr-16 22:33N 49°11' W 004°37'3221.5
2019-Apr-16 21:04N 49°42' W 004°24'221.6
2019-Apr-16 21:00N 49°44' W 004°23'1221.6
2019-Apr-16 20:25N 49°56' W 004°18'921.3
2019-Apr-16 20:00N 50°04' W 004°14'1121.1
2019-Apr-16 19:30N 50°14' W 004°11'714.7
2019-Apr-16 19:01N 50°22' W 004°09'0 0.8
2019-Apr-16 18:31N 50°22' W 004°09'0 0.0
2019-Apr-16 18:00N 50°22' W 004°09'0 0.0
2019-Apr-16 17:31N 50°22' W 004°09'0 0.0
2019-Apr-16 17:01N 50°22' W 004°09'0 0.0
2019-Apr-16 16:31N 50°22' W 004°09'0 0.0
2019-Apr-16 16:00N 50°22' W 004°09'0 0.0
2019-Apr-16 15:31N 50°22' W 004°09'0 0.0
2019-Apr-16 15:01N 50°22' W 004°09'0 0.0
2019-Apr-16 14:31N 50°22' W 004°09'0 0.0
2019-Apr-16 14:00N 50°22' W 004°09'0 0.0
2019-Apr-16 13:31N 50°22' W 004°09'0 0.0
2019-Apr-16 13:01N 50°22' W 004°09'0 0.0
2019-Apr-16 12:31N 50°22' W 004°09'0 0.3
2019-Apr-16 12:01N 50°22' W 004°09'3 5.5
2019-Apr-16 11:31N 50°19' W 004°10'1121.4
2019-Apr-16 11:01N 50°08' W 004°13'1122.7
2019-Apr-16 10:31N 49°58' W 004°22'8022.6
2019-Apr-16 06:58N 48°41' W 004°54'1022.0
2019-Apr-16 06:30N 48°31' W 004°58'917.1
2019-Apr-16 06:01N 48°24' W 005°05'1121.1
2019-Apr-16 05:31N 48°14' W 005°08'1122.4
2019-Apr-16 05:00N 48°03' W 005°10'2322.3
2019-Apr-16 03:58N 47°41' W 004°59'23718.5
2019-Apr-15 15:12N 43°48' W 003°52'422.5
2019-Apr-15 15:01N 43°44' W 003°51'1122.6
2019-Apr-15 14:31N 43°34' W 003°47'612.3
2019-Apr-15 14:00N 43°27' W 003°48'0 0.1
2019-Apr-15 13:30N 43°28' W 003°48'0 0.0
2019-Apr-15 13:00N 43°28' W 003°48'0 0.0
2019-Apr-15 12:00N 43°28' W 003°48'0 0.0
2019-Apr-15 11:29N 43°28' W 003°48'0 0.0
2019-Apr-15 11:00N 43°28' W 003°48'3 4.1
2019-Apr-15 10:15N 43°29' W 003°45'623.2
2019-Apr-15 10:00N 43°35' W 003°46'1223.2
2019-Apr-15 09:31N 43°46' W 003°49'1223.2
2019-Apr-15 09:01N 43°58' W 003°52'25222.9
2019-Apr-14 21:58N 48°04' W 005°10'1021.4
2019-Apr-14 21:30N 48°14' W 005°08'1121.1
2019-Apr-14 20:58N 48°25' W 005°04'  

Dump ship's entire track history